sensor_id;sensor_type;location;lat;lon;timestamp;P1;durP1;ratioP1;P2;durP2;ratioP2
5137;SDS011;53959;53.626;11.410;2023-04-24T00:01:39;2.53;;;2.43;;
5137;SDS011;53959;53.626;11.410;2023-04-24T00:04:05;7.93;;;3.27;;
5137;SDS011;53959;53.626;11.410;2023-04-24T00:06:32;2.67;;;2.57;;
5137;SDS011;53959;53.626;11.410;2023-04-24T00:09:02;4.07;;;2.73;;
5137;SDS011;53959;53.626;11.410;2023-04-24T00:11:28;3.37;;;3.10;;
5137;SDS011;53959;53.626;11.410;2023-04-24T00:13:55;3.00;;;2.90;;
5137;SDS011;53959;53.626;11.410;2023-04-24T00:16:20;3.90;;;3.20;;
5137;SDS011;53959;53.626;11.410;2023-04-24T00:18:46;4.73;;;2.50;;
5137;SDS011;53959;53.626;11.410;2023-04-24T00:21:13;3.00;;;2.73;;
5137;SDS011;53959;53.626;11.410;2023-04-24T00:23:39;2.93;;;2.67;;
5137;SDS011;53959;53.626;11.410;2023-04-24T00:26:05;3.20;;;3.00;;
5137;SDS011;53959;53.626;11.410;2023-04-24T00:28:30;5.53;;;3.23;;
5137;SDS011;53959;53.626;11.410;2023-04-24T00:30:55;4.47;;;2.70;;
5137;SDS011;53959;53.626;11.410;2023-04-24T00:33:21;3.30;;;3.10;;
5137;SDS011;53959;53.626;11.410;2023-04-24T00:35:46;2.73;;;2.53;;
5137;SDS011;53959;53.626;11.410;2023-04-24T00:38:12;2.80;;;2.70;;
5137;SDS011;53959;53.626;11.410;2023-04-24T00:40:37;5.50;;;3.40;;
5137;SDS011;53959;53.626;11.410;2023-04-24T00:43:02;3.10;;;2.90;;
5137;SDS011;53959;53.626;11.410;2023-04-24T00:45:28;2.73;;;2.63;;
5137;SDS011;53959;53.626;11.410;2023-04-24T00:47:56;2.90;;;2.80;;
5137;SDS011;53959;53.626;11.410;2023-04-24T00:50:22;3.20;;;3.00;;
5137;SDS011;53959;53.626;11.410;2023-04-24T00:52:49;2.93;;;2.80;;
5137;SDS011;53959;53.626;11.410;2023-04-24T00:55:15;4.33;;;3.53;;
5137;SDS011;53959;53.626;11.410;2023-04-24T00:57:42;4.00;;;3.57;;
5137;SDS011;53959;53.626;11.410;2023-04-24T01:00:09;3.40;;;3.20;;
5137;SDS011;53959;53.626;11.410;2023-04-24T01:02:39;3.30;;;3.00;;
5137;SDS011;53959;53.626;11.410;2023-04-24T01:05:09;4.00;;;3.10;;
5137;SDS011;53959;53.626;11.410;2023-04-24T01:07:34;3.27;;;3.07;;
5137;SDS011;53959;53.626;11.410;2023-04-24T01:10:00;3.27;;;2.73;;
5137;SDS011;53959;53.626;11.410;2023-04-24T01:12:26;2.87;;;2.73;;
5137;SDS011;53959;53.626;11.410;2023-04-24T01:14:51;3.30;;;3.10;;
5137;SDS011;53959;53.626;11.410;2023-04-24T01:17:17;3.13;;;2.90;;
5137;SDS011;53959;53.626;11.410;2023-04-24T01:19:43;4.27;;;3.17;;
5137;SDS011;53959;53.626;11.410;2023-04-24T01:22:12;3.17;;;3.00;;
5137;SDS011;53959;53.626;11.410;2023-04-24T01:24:40;4.53;;;2.87;;
5137;SDS011;53959;53.626;11.410;2023-04-24T01:27:06;3.40;;;3.10;;
5137;SDS011;53959;53.626;11.410;2023-04-24T01:29:32;4.73;;;3.63;;
5137;SDS011;53959;53.626;11.410;2023-04-24T01:31:59;3.87;;;3.03;;
5137;SDS011;53959;53.626;11.410;2023-04-24T01:34:25;6.50;;;4.10;;
5137;SDS011;53959;53.626;11.410;2023-04-24T01:36:51;9.53;;;3.90;;
5137;SDS011;53959;53.626;11.410;2023-04-24T01:39:16;4.20;;;3.80;;
5137;SDS011;53959;53.626;11.410;2023-04-24T01:41:41;4.93;;;4.40;;
5137;SDS011;53959;53.626;11.410;2023-04-24T01:44:07;4.43;;;3.43;;
5137;SDS011;53959;53.626;11.410;2023-04-24T01:46:34;4.10;;;3.77;;
5137;SDS011;53959;53.626;11.410;2023-04-24T01:49:00;4.23;;;3.90;;
5137;SDS011;53959;53.626;11.410;2023-04-24T01:51:26;6.60;;;4.50;;
5137;SDS011;53959;53.626;11.410;2023-04-24T01:53:52;4.40;;;3.50;;
5137;SDS011;53959;53.626;11.410;2023-04-24T01:56:19;5.30;;;3.33;;
5137;SDS011;53959;53.626;11.410;2023-04-24T01:58:45;6.73;;;4.03;;
5137;SDS011;53959;53.626;11.410;2023-04-24T02:01:15;4.40;;;4.00;;
5137;SDS011;53959;53.626;11.410;2023-04-24T02:03:46;4.83;;;3.43;;
5137;SDS011;53959;53.626;11.410;2023-04-24T02:06:12;7.03;;;3.63;;
5137;SDS011;53959;53.626;11.410;2023-04-24T02:08:37;4.20;;;3.80;;
5137;SDS011;53959;53.626;11.410;2023-04-24T02:11:02;4.47;;;4.07;;
5137;SDS011;53959;53.626;11.410;2023-04-24T02:13:30;4.20;;;3.73;;
5137;SDS011;53959;53.626;11.410;2023-04-24T02:15:55;4.03;;;3.73;;
5137;SDS011;53959;53.626;11.410;2023-04-24T02:18:22;6.93;;;4.07;;
5137;SDS011;53959;53.626;11.410;2023-04-24T02:20:47;4.63;;;4.30;;
5137;SDS011;53959;53.626;11.410;2023-04-24T02:23:13;3.90;;;3.57;;
5137;SDS011;53959;53.626;11.410;2023-04-24T02:25:38;4.40;;;4.00;;
5137;SDS011;53959;53.626;11.410;2023-04-24T02:28:04;4.40;;;4.10;;
5137;SDS011;53959;53.626;11.410;2023-04-24T02:30:29;4.50;;;4.10;;
5137;SDS011;53959;53.626;11.410;2023-04-24T02:32:54;4.53;;;4.23;;
5137;SDS011;53959;53.626;11.410;2023-04-24T02:35:20;4.20;;;3.80;;
5137;SDS011;53959;53.626;11.410;2023-04-24T02:37:45;4.40;;;4.10;;
5137;SDS011;53959;53.626;11.410;2023-04-24T02:40:11;5.60;;;4.97;;
5137;SDS011;53959;53.626;11.410;2023-04-24T02:42:36;6.70;;;4.37;;
5137;SDS011;53959;53.626;11.410;2023-04-24T02:45:02;5.47;;;4.40;;
5137;SDS011;53959;53.626;11.410;2023-04-24T02:47:28;7.20;;;4.47;;
5137;SDS011;53959;53.626;11.410;2023-04-24T02:49:53;4.83;;;4.43;;
5137;SDS011;53959;53.626;11.410;2023-04-24T02:52:19;5.00;;;4.47;;
5137;SDS011;53959;53.626;11.410;2023-04-24T02:54:44;6.10;;;4.33;;
5137;SDS011;53959;53.626;11.410;2023-04-24T02:57:10;6.63;;;4.63;;
5137;SDS011;53959;53.626;11.410;2023-04-24T02:59:38;5.47;;;4.13;;
5137;SDS011;53959;53.626;11.410;2023-04-24T03:02:03;12.20;;;5.23;;
5137;SDS011;53959;53.626;11.410;2023-04-24T03:04:29;6.00;;;4.63;;
5137;SDS011;53959;53.626;11.410;2023-04-24T03:06:54;5.17;;;4.67;;
5137;SDS011;53959;53.626;11.410;2023-04-24T03:09:20;5.90;;;4.20;;
5137;SDS011;53959;53.626;11.410;2023-04-24T03:11:46;5.07;;;4.57;;
5137;SDS011;53959;53.626;11.410;2023-04-24T03:14:13;11.93;;;4.63;;
5137;SDS011;53959;53.626;11.410;2023-04-24T03:16:38;12.83;;;4.87;;
5137;SDS011;53959;53.626;11.410;2023-04-24T03:19:05;5.33;;;4.83;;
5137;SDS011;53959;53.626;11.410;2023-04-24T03:21:34;5.33;;;4.90;;
5137;SDS011;53959;53.626;11.410;2023-04-24T03:24:01;5.17;;;4.67;;
5137;SDS011;53959;53.626;11.410;2023-04-24T03:26:26;6.10;;;4.40;;
5137;SDS011;53959;53.626;11.410;2023-04-24T03:29:03;5.73;;;4.10;;
5137;SDS011;53959;53.626;11.410;2023-04-24T03:31:28;4.33;;;3.93;;
5137;SDS011;53959;53.626;11.410;2023-04-24T03:33:54;4.20;;;3.80;;
5137;SDS011;53959;53.626;11.410;2023-04-24T03:36:20;4.10;;;3.80;;
5137;SDS011;53959;53.626;11.410;2023-04-24T03:38:45;5.73;;;3.70;;
5137;SDS011;53959;53.626;11.410;2023-04-24T03:41:21;4.20;;;3.90;;
5137;SDS011;53959;53.626;11.410;2023-04-24T03:43:50;4.70;;;4.30;;
5137;SDS011;53959;53.626;11.410;2023-04-24T03:46:16;4.47;;;4.07;;
5137;SDS011;53959;53.626;11.410;2023-04-24T03:48:47;6.13;;;4.37;;
5137;SDS011;53959;53.626;11.410;2023-04-24T03:51:17;4.40;;;4.00;;
5137;SDS011;53959;53.626;11.410;2023-04-24T03:53:45;5.00;;;4.47;;
5137;SDS011;53959;53.626;11.410;2023-04-24T03:56:14;3.80;;;3.53;;
5137;SDS011;53959;53.626;11.410;2023-04-24T03:58:40;5.70;;;4.20;;
5137;SDS011;53959;53.626;11.410;2023-04-24T04:01:05;4.33;;;3.97;;
5137;SDS011;53959;53.626;11.410;2023-04-24T04:03:37;5.27;;;3.63;;
5137;SDS011;53959;53.626;11.410;2023-04-24T04:06:02;4.93;;;3.90;;
5137;SDS011;53959;53.626;11.410;2023-04-24T04:08:28;4.60;;;4.30;;
5137;SDS011;53959;53.626;11.410;2023-04-24T04:10:53;4.10;;;3.70;;
5137;SDS011;53959;53.626;11.410;2023-04-24T04:13:19;4.50;;;4.10;;
5137;SDS011;53959;53.626;11.410;2023-04-24T04:15:45;4.43;;;4.13;;
5137;SDS011;53959;53.626;11.410;2023-04-24T04:18:11;4.50;;;3.83;;
5137;SDS011;53959;53.626;11.410;2023-04-24T04:20:36;3.53;;;3.33;;
5137;SDS011;53959;53.626;11.410;2023-04-24T04:23:02;2.90;;;2.70;;
5137;SDS011;53959;53.626;11.410;2023-04-24T04:25:39;7.93;;;3.20;;
5137;SDS011;53959;53.626;11.410;2023-04-24T04:28:04;5.73;;;3.37;;
5137;SDS011;53959;53.626;11.410;2023-04-24T04:30:31;5.30;;;3.70;;
5137;SDS011;53959;53.626;11.410;2023-04-24T04:33:01;3.30;;;2.93;;
5137;SDS011;53959;53.626;11.410;2023-04-24T04:35:27;3.57;;;3.23;;
5137;SDS011;53959;53.626;11.410;2023-04-24T04:37:53;3.13;;;2.97;;
5137;SDS011;53959;53.626;11.410;2023-04-24T04:40:38;7.43;;;3.17;;
5137;SDS011;53959;53.626;11.410;2023-04-24T04:43:05;4.63;;;3.50;;
5137;SDS011;53959;53.626;11.410;2023-04-24T04:45:37;2.40;;;2.30;;
5137;SDS011;53959;53.626;11.410;2023-04-24T04:48:36;3.57;;;3.27;;
5137;SDS011;53959;53.626;11.410;2023-04-24T04:51:04;7.57;;;3.13;;
5137;SDS011;53959;53.626;11.410;2023-04-24T04:53:30;3.57;;;3.37;;
5137;SDS011;53959;53.626;11.410;2023-04-24T04:55:55;3.13;;;2.83;;
5137;SDS011;53959;53.626;11.410;2023-04-24T04:58:26;3.40;;;3.17;;
5137;SDS011;53959;53.626;11.410;2023-04-24T05:00:55;2.77;;;2.57;;
5137;SDS011;53959;53.626;11.410;2023-04-24T05:03:27;2.77;;;2.57;;
5137;SDS011;53959;53.626;11.410;2023-04-24T05:05:58;3.23;;;2.80;;
5137;SDS011;53959;53.626;11.410;2023-04-24T05:08:24;2.80;;;2.60;;
5137;SDS011;53959;53.626;11.410;2023-04-24T05:10:50;3.47;;;3.03;;
5137;SDS011;53959;53.626;11.410;2023-04-24T05:13:15;3.60;;;2.63;;
5137;SDS011;53959;53.626;11.410;2023-04-24T05:15:41;2.37;;;2.17;;
5137;SDS011;53959;53.626;11.410;2023-04-24T05:18:06;2.07;;;1.97;;
5137;SDS011;53959;53.626;11.410;2023-04-24T05:20:32;2.23;;;2.13;;
5137;SDS011;53959;53.626;11.410;2023-04-24T05:22:57;3.10;;;2.50;;
5137;SDS011;53959;53.626;11.410;2023-04-24T05:25:24;5.70;;;2.30;;
5137;SDS011;53959;53.626;11.410;2023-04-24T05:27:54;2.60;;;2.50;;
5137;SDS011;53959;53.626;11.410;2023-04-24T05:30:21;2.00;;;1.90;;
5137;SDS011;53959;53.626;11.410;2023-04-24T05:32:46;2.67;;;2.50;;
5137;SDS011;53959;53.626;11.410;2023-04-24T05:35:12;2.50;;;2.30;;
5137;SDS011;53959;53.626;11.410;2023-04-24T05:37:37;2.20;;;2.10;;
5137;SDS011;53959;53.626;11.410;2023-04-24T05:40:03;2.30;;;2.00;;
5137;SDS011;53959;53.626;11.410;2023-04-24T05:42:30;2.20;;;2.10;;
5137;SDS011;53959;53.626;11.410;2023-04-24T05:44:56;6.00;;;2.37;;
5137;SDS011;53959;53.626;11.410;2023-04-24T05:47:21;1.90;;;1.80;;
5137;SDS011;53959;53.626;11.410;2023-04-24T05:49:47;2.10;;;2.00;;
5137;SDS011;53959;53.626;11.410;2023-04-24T05:52:13;1.70;;;1.53;;
5137;SDS011;53959;53.626;11.410;2023-04-24T05:54:39;2.87;;;2.10;;
5137;SDS011;53959;53.626;11.410;2023-04-24T05:57:05;2.40;;;1.90;;
5137;SDS011;53959;53.626;11.410;2023-04-24T05:59:46;1.73;;;1.63;;
5137;SDS011;53959;53.626;11.410;2023-04-24T06:02:12;1.70;;;1.60;;
5137;SDS011;53959;53.626;11.410;2023-04-24T06:04:37;6.73;;;1.83;;
5137;SDS011;53959;53.626;11.410;2023-04-24T06:07:03;1.83;;;1.40;;
5137;SDS011;53959;53.626;11.410;2023-04-24T06:09:28;5.60;;;1.73;;
5137;SDS011;53959;53.626;11.410;2023-04-24T06:11:54;1.57;;;1.57;;
5137;SDS011;53959;53.626;11.410;2023-04-24T06:14:23;2.37;;;2.17;;
5137;SDS011;53959;53.626;11.410;2023-04-24T06:17:06;1.80;;;1.70;;
5137;SDS011;53959;53.626;11.410;2023-04-24T06:19:36;2.17;;;2.07;;
5137;SDS011;53959;53.626;11.410;2023-04-24T06:22:01;2.00;;;1.90;;
5137;SDS011;53959;53.626;11.410;2023-04-24T06:24:27;1.80;;;1.70;;
5137;SDS011;53959;53.626;11.410;2023-04-24T06:26:53;1.90;;;1.80;;
5137;SDS011;53959;53.626;11.410;2023-04-24T06:29:19;2.73;;;2.00;;
5137;SDS011;53959;53.626;11.410;2023-04-24T06:31:44;1.70;;;1.60;;
5137;SDS011;53959;53.626;11.410;2023-04-24T06:34:10;6.00;;;1.83;;
5137;SDS011;53959;53.626;11.410;2023-04-24T06:36:35;2.27;;;2.00;;
5137;SDS011;53959;53.626;11.410;2023-04-24T06:39:01;1.60;;;1.50;;
5137;SDS011;53959;53.626;11.410;2023-04-24T06:41:27;16.03;;;2.33;;
5137;SDS011;53959;53.626;11.410;2023-04-24T06:43:53;1.50;;;1.40;;
5137;SDS011;53959;53.626;11.410;2023-04-24T06:46:19;1.70;;;1.60;;
5137;SDS011;53959;53.626;11.410;2023-04-24T06:48:47;1.43;;;1.40;;
5137;SDS011;53959;53.626;11.410;2023-04-24T06:51:12;1.53;;;1.47;;
5137;SDS011;53959;53.626;11.410;2023-04-24T06:53:37;1.10;;;1.10;;
5137;SDS011;53959;53.626;11.410;2023-04-24T06:56:03;1.43;;;1.43;;
5137;SDS011;53959;53.626;11.410;2023-04-24T06:58:29;1.90;;;1.70;;
5137;SDS011;53959;53.626;11.410;2023-04-24T07:00:55;1.93;;;1.60;;
5137;SDS011;53959;53.626;11.410;2023-04-24T07:03:20;1.90;;;1.80;;
5137;SDS011;53959;53.626;11.410;2023-04-24T07:05:46;2.60;;;1.20;;
5137;SDS011;53959;53.626;11.410;2023-04-24T07:08:12;3.47;;;1.40;;
5137;SDS011;53959;53.626;11.410;2023-04-24T07:10:38;1.90;;;1.67;;
5137;SDS011;53959;53.626;11.410;2023-04-24T07:13:04;1.63;;;1.40;;
5137;SDS011;53959;53.626;11.410;2023-04-24T07:15:29;1.10;;;1.10;;
5137;SDS011;53959;53.626;11.410;2023-04-24T07:17:55;1.00;;;1.00;;
5137;SDS011;53959;53.626;11.410;2023-04-24T07:20:21;1.23;;;1.23;;
5137;SDS011;53959;53.626;11.410;2023-04-24T07:22:46;2.97;;;1.50;;
5137;SDS011;53959;53.626;11.410;2023-04-24T07:25:13;1.83;;;1.20;;
5137;SDS011;53959;53.626;11.410;2023-04-24T07:27:38;3.23;;;2.63;;
5137;SDS011;53959;53.626;11.410;2023-04-24T07:30:03;1.47;;;1.40;;
5137;SDS011;53959;53.626;11.410;2023-04-24T07:32:29;1.03;;;1.03;;
5137;SDS011;53959;53.626;11.410;2023-04-24T07:34:55;1.60;;;1.50;;
5137;SDS011;53959;53.626;11.410;2023-04-24T07:37:20;5.13;;;1.20;;
5137;SDS011;53959;53.626;11.410;2023-04-24T07:39:46;13.33;;;3.33;;
5137;SDS011;53959;53.626;11.410;2023-04-24T07:42:11;9.07;;;1.53;;
5137;SDS011;53959;53.626;11.410;2023-04-24T07:44:36;4.47;;;1.53;;
5137;SDS011;53959;53.626;11.410;2023-04-24T07:47:02;1.17;;;1.10;;
5137;SDS011;53959;53.626;11.410;2023-04-24T07:49:27;1.13;;;1.13;;
5137;SDS011;53959;53.626;11.410;2023-04-24T07:51:53;1.43;;;1.33;;
5137;SDS011;53959;53.626;11.410;2023-04-24T07:54:18;1.00;;;1.00;;
5137;SDS011;53959;53.626;11.410;2023-04-24T07:56:43;0.60;;;0.60;;
5137;SDS011;53959;53.626;11.410;2023-04-24T07:59:09;2.87;;;1.20;;
5137;SDS011;53959;53.626;11.410;2023-04-24T08:01:35;0.70;;;0.70;;
5137;SDS011;53959;53.626;11.410;2023-04-24T08:04:01;5.20;;;1.17;;
5137;SDS011;53959;53.626;11.410;2023-04-24T08:06:27;1.70;;;1.00;;
5137;SDS011;53959;53.626;11.410;2023-04-24T08:08:57;2.00;;;0.80;;
5137;SDS011;53959;53.626;11.410;2023-04-24T08:11:23;2.60;;;1.63;;
5137;SDS011;53959;53.626;11.410;2023-04-24T08:13:49;1.20;;;1.20;;
5137;SDS011;53959;53.626;11.410;2023-04-24T08:16:15;3.80;;;1.60;;
5137;SDS011;53959;53.626;11.410;2023-04-24T08:18:40;1.30;;;1.20;;
5137;SDS011;53959;53.626;11.410;2023-04-24T08:21:06;1.47;;;1.37;;
5137;SDS011;53959;53.626;11.410;2023-04-24T08:23:31;1.43;;;1.33;;
5137;SDS011;53959;53.626;11.410;2023-04-24T08:25:57;0.70;;;0.70;;
5137;SDS011;53959;53.626;11.410;2023-04-24T08:28:22;0.80;;;0.80;;
5137;SDS011;53959;53.626;11.410;2023-04-24T08:30:48;5.23;;;1.30;;
5137;SDS011;53959;53.626;11.410;2023-04-24T08:33:13;1.97;;;0.90;;
5137;SDS011;53959;53.626;11.410;2023-04-24T08:35:39;1.03;;;0.73;;
5137;SDS011;53959;53.626;11.410;2023-04-24T08:38:05;0.90;;;0.90;;
5137;SDS011;53959;53.626;11.410;2023-04-24T08:40:31;1.87;;;1.57;;
5137;SDS011;53959;53.626;11.410;2023-04-24T08:42:59;0.70;;;0.70;;
5137;SDS011;53959;53.626;11.410;2023-04-24T08:45:25;1.40;;;1.30;;
5137;SDS011;53959;53.626;11.410;2023-04-24T08:47:51;1.53;;;0.70;;
5137;SDS011;53959;53.626;11.410;2023-04-24T08:50:19;0.80;;;0.73;;
5137;SDS011;53959;53.626;11.410;2023-04-24T08:52:45;2.20;;;0.87;;
5137;SDS011;53959;53.626;11.410;2023-04-24T08:55:10;0.60;;;0.60;;
5137;SDS011;53959;53.626;11.410;2023-04-24T08:57:36;1.53;;;1.03;;
5137;SDS011;53959;53.626;11.410;2023-04-24T09:00:03;1.27;;;0.80;;
5137;SDS011;53959;53.626;11.410;2023-04-24T09:02:30;3.50;;;1.00;;
5137;SDS011;53959;53.626;11.410;2023-04-24T09:04:57;0.83;;;0.77;;
5137;SDS011;53959;53.626;11.410;2023-04-24T09:07:24;0.80;;;0.80;;
5137;SDS011;53959;53.626;11.410;2023-04-24T09:09:51;0.90;;;0.90;;
5137;SDS011;53959;53.626;11.410;2023-04-24T09:12:17;1.20;;;1.20;;
5137;SDS011;53959;53.626;11.410;2023-04-24T09:14:44;0.83;;;0.83;;
5137;SDS011;53959;53.626;11.410;2023-04-24T09:17:10;2.30;;;1.13;;
5137;SDS011;53959;53.626;11.410;2023-04-24T09:19:36;0.80;;;0.80;;
5137;SDS011;53959;53.626;11.410;2023-04-24T09:22:04;1.07;;;1.07;;
5137;SDS011;53959;53.626;11.410;2023-04-24T09:24:31;1.67;;;1.00;;
5137;SDS011;53959;53.626;11.410;2023-04-24T09:26:57;1.00;;;1.00;;
5137;SDS011;53959;53.626;11.410;2023-04-24T09:29:23;0.90;;;0.90;;
5137;SDS011;53959;53.626;11.410;2023-04-24T09:31:49;1.10;;;0.87;;
5137;SDS011;53959;53.626;11.410;2023-04-24T09:34:18;0.80;;;0.80;;
5137;SDS011;53959;53.626;11.410;2023-04-24T09:36:46;1.93;;;1.20;;
5137;SDS011;53959;53.626;11.410;2023-04-24T09:39:12;1.83;;;1.63;;
5137;SDS011;53959;53.626;11.410;2023-04-24T09:42:00;5.37;;;2.73;;
5137;SDS011;53959;53.626;11.410;2023-04-24T09:44:26;1.40;;;1.40;;
5137;SDS011;53959;53.626;11.410;2023-04-24T09:46:57;2.20;;;1.30;;
5137;SDS011;53959;53.626;11.410;2023-04-24T09:49:29;1.97;;;1.30;;
5137;SDS011;53959;53.626;11.410;2023-04-24T09:52:09;4.57;;;1.87;;
5137;SDS011;53959;53.626;11.410;2023-04-24T09:54:35;5.03;;;1.97;;
5137;SDS011;53959;53.626;11.410;2023-04-24T09:57:04;3.50;;;1.13;;
5137;SDS011;53959;53.626;11.410;2023-04-24T09:59:32;2.50;;;1.40;;
5137;SDS011;53959;53.626;11.410;2023-04-24T10:01:57;4.53;;;2.10;;
5137;SDS011;53959;53.626;11.410;2023-04-24T10:04:25;4.00;;;1.87;;
5137;SDS011;53959;53.626;11.410;2023-04-24T10:06:53;1.10;;;1.10;;
5137;SDS011;53959;53.626;11.410;2023-04-24T10:09:21;3.33;;;1.00;;
5137;SDS011;53959;53.626;11.410;2023-04-24T10:11:50;1.60;;;0.87;;
5137;SDS011;53959;53.626;11.410;2023-04-24T10:14:17;1.00;;;1.00;;
5137;SDS011;53959;53.626;11.410;2023-04-24T10:16:48;1.00;;;1.00;;
5137;SDS011;53959;53.626;11.410;2023-04-24T10:19:14;1.63;;;1.53;;
5137;SDS011;53959;53.626;11.410;2023-04-24T10:21:42;0.87;;;0.87;;
5137;SDS011;53959;53.626;11.410;2023-04-24T10:24:11;1.40;;;0.87;;
5137;SDS011;53959;53.626;11.410;2023-04-24T10:26:39;1.60;;;1.33;;
5137;SDS011;53959;53.626;11.410;2023-04-24T10:29:05;1.00;;;1.00;;
5137;SDS011;53959;53.626;11.410;2023-04-24T10:31:34;1.37;;;1.30;;
5137;SDS011;53959;53.626;11.410;2023-04-24T10:34:01;1.80;;;1.07;;
5137;SDS011;53959;53.626;11.410;2023-04-24T10:36:28;3.33;;;1.60;;
5137;SDS011;53959;53.626;11.410;2023-04-24T10:38:57;2.30;;;0.90;;
5137;SDS011;53959;53.626;11.410;2023-04-24T10:41:25;2.77;;;1.70;;
5137;SDS011;53959;53.626;11.410;2023-04-24T10:44:07;1.27;;;1.23;;
5137;SDS011;53959;53.626;11.410;2023-04-24T10:46:37;1.27;;;1.27;;
5137;SDS011;53959;53.626;11.410;2023-04-24T10:49:07;1.40;;;1.30;;
5137;SDS011;53959;53.626;11.410;2023-04-24T10:54:35;1.43;;;0.87;;
5137;SDS011;53959;53.626;11.410;2023-04-24T10:59:48;1.13;;;1.13;;
5137;SDS011;53959;53.626;11.410;2023-04-24T11:02:18;2.33;;;1.83;;
5137;SDS011;53959;53.626;11.410;2023-04-24T11:05:02;1.40;;;1.30;;
5137;SDS011;53959;53.626;11.410;2023-04-24T11:07:29;0.83;;;0.83;;
5137;SDS011;53959;53.626;11.410;2023-04-24T11:09:58;3.60;;;1.07;;
5137;SDS011;53959;53.626;11.410;2023-04-24T11:12:25;8.67;;;1.10;;
5137;SDS011;53959;53.626;11.410;2023-04-24T11:22:42;0.83;;;0.83;;
5137;SDS011;53959;53.626;11.410;2023-04-24T11:25:08;1.03;;;0.97;;
5137;SDS011;53959;53.626;11.410;2023-04-24T11:27:40;2.80;;;1.20;;
5137;SDS011;53959;53.626;11.410;2023-04-24T11:30:07;1.33;;;1.33;;
5137;SDS011;53959;53.626;11.410;2023-04-24T11:37:41;1.77;;;1.33;;
5137;SDS011;53959;53.626;11.410;2023-04-24T11:40:09;2.37;;;1.93;;
5137;SDS011;53959;53.626;11.410;2023-04-24T11:42:40;1.60;;;1.60;;
5137;SDS011;53959;53.626;11.410;2023-04-24T11:45:09;2.30;;;1.60;;
5137;SDS011;53959;53.626;11.410;2023-04-24T11:47:36;2.10;;;2.00;;
5137;SDS011;53959;53.626;11.410;2023-04-24T11:50:02;2.80;;;2.00;;
5137;SDS011;53959;53.626;11.410;2023-04-24T11:52:29;4.13;;;2.93;;
5137;SDS011;53959;53.626;11.410;2023-04-24T11:54:55;2.77;;;2.30;;
5137;SDS011;53959;53.626;11.410;2023-04-24T11:57:24;3.47;;;3.17;;
5137;SDS011;53959;53.626;11.410;2023-04-24T11:59:53;3.43;;;3.17;;
5137;SDS011;53959;53.626;11.410;2023-04-24T12:02:23;3.23;;;3.00;;
5137;SDS011;53959;53.626;11.410;2023-04-24T12:04:49;2.90;;;2.70;;
5137;SDS011;53959;53.626;11.410;2023-04-24T12:07:15;5.63;;;3.73;;
5137;SDS011;53959;53.626;11.410;2023-04-24T12:09:44;3.20;;;2.90;;
5137;SDS011;53959;53.626;11.410;2023-04-24T12:12:14;4.07;;;3.70;;
5137;SDS011;53959;53.626;11.410;2023-04-24T12:14:52;4.20;;;3.40;;
5137;SDS011;53959;53.626;11.410;2023-04-24T12:17:26;7.47;;;4.70;;
5137;SDS011;53959;53.626;11.410;2023-04-24T12:22:27;5.13;;;4.63;;
5137;SDS011;53959;53.626;11.410;2023-04-24T12:24:57;4.20;;;3.80;;
5137;SDS011;53959;53.626;11.410;2023-04-24T12:27:25;4.67;;;4.00;;
5137;SDS011;53959;53.626;11.410;2023-04-24T12:29:57;6.87;;;3.50;;
5137;SDS011;53959;53.626;11.410;2023-04-24T12:32:23;5.50;;;4.20;;
5137;SDS011;53959;53.626;11.410;2023-04-24T12:34:50;6.77;;;3.90;;
5137;SDS011;53959;53.626;11.410;2023-04-24T12:37:17;4.03;;;3.70;;
5137;SDS011;53959;53.626;11.410;2023-04-24T12:39:58;3.00;;;2.80;;
5137;SDS011;53959;53.626;11.410;2023-04-24T12:42:33;5.80;;;3.10;;
5137;SDS011;53959;53.626;11.410;2023-04-24T12:45:03;2.87;;;2.67;;
5137;SDS011;53959;53.626;11.410;2023-04-24T12:47:31;3.10;;;2.53;;
5137;SDS011;53959;53.626;11.410;2023-04-24T12:49:57;3.97;;;2.83;;
5137;SDS011;53959;53.626;11.410;2023-04-24T12:52:23;4.87;;;3.03;;
5137;SDS011;53959;53.626;11.410;2023-04-24T12:54:52;6.07;;;3.93;;
5137;SDS011;53959;53.626;11.410;2023-04-24T12:57:18;6.60;;;3.60;;
5137;SDS011;53959;53.626;11.410;2023-04-24T12:59:44;2.80;;;2.60;;
5137;SDS011;53959;53.626;11.410;2023-04-24T13:02:10;5.70;;;3.20;;
5137;SDS011;53959;53.626;11.410;2023-04-24T13:04:36;3.03;;;2.83;;
5137;SDS011;53959;53.626;11.410;2023-04-24T13:07:01;3.50;;;3.20;;
5137;SDS011;53959;53.626;11.410;2023-04-24T13:09:27;3.77;;;3.07;;
5137;SDS011;53959;53.626;11.410;2023-04-24T13:11:52;4.40;;;3.27;;
5137;SDS011;53959;53.626;11.410;2023-04-24T13:14:18;3.43;;;2.90;;
5137;SDS011;53959;53.626;11.410;2023-04-24T13:16:43;4.43;;;3.30;;
5137;SDS011;53959;53.626;11.410;2023-04-24T13:19:08;3.00;;;2.80;;
5137;SDS011;53959;53.626;11.410;2023-04-24T13:21:34;3.57;;;3.27;;
5137;SDS011;53959;53.626;11.410;2023-04-24T13:23:59;4.10;;;3.43;;
5137;SDS011;53959;53.626;11.410;2023-04-24T13:26:24;3.50;;;3.30;;
5137;SDS011;53959;53.626;11.410;2023-04-24T13:28:50;3.30;;;3.00;;
5137;SDS011;53959;53.626;11.410;2023-04-24T13:31:15;6.13;;;3.30;;
5137;SDS011;53959;53.626;11.410;2023-04-24T13:33:41;3.67;;;2.80;;
5137;SDS011;53959;53.626;11.410;2023-04-24T13:36:06;5.63;;;3.00;;
5137;SDS011;53959;53.626;11.410;2023-04-24T13:38:32;4.67;;;3.10;;
5137;SDS011;53959;53.626;11.410;2023-04-24T13:40:57;3.17;;;2.97;;
5137;SDS011;53959;53.626;11.410;2023-04-24T13:43:22;2.67;;;2.50;;
5137;SDS011;53959;53.626;11.410;2023-04-24T13:45:48;3.57;;;3.30;;
5137;SDS011;53959;53.626;11.410;2023-04-24T13:48:13;11.13;;;2.90;;
5137;SDS011;53959;53.626;11.410;2023-04-24T13:50:40;3.77;;;3.30;;
5137;SDS011;53959;53.626;11.410;2023-04-24T13:53:09;3.33;;;2.60;;
5137;SDS011;53959;53.626;11.410;2023-04-24T13:55:35;3.77;;;3.47;;
5137;SDS011;53959;53.626;11.410;2023-04-24T13:58:01;3.10;;;2.77;;
5137;SDS011;53959;53.626;11.410;2023-04-24T14:00:27;2.60;;;2.40;;
5137;SDS011;53959;53.626;11.410;2023-04-24T14:02:53;2.30;;;2.07;;
5137;SDS011;53959;53.626;11.410;2023-04-24T14:05:18;2.50;;;2.40;;
5137;SDS011;53959;53.626;11.410;2023-04-24T14:07:43;2.07;;;1.97;;
5137;SDS011;53959;53.626;11.410;2023-04-24T14:10:09;2.67;;;2.27;;
5137;SDS011;53959;53.626;11.410;2023-04-24T14:12:35;2.53;;;1.83;;
5137;SDS011;53959;53.626;11.410;2023-04-24T14:15:00;1.97;;;1.87;;
5137;SDS011;53959;53.626;11.410;2023-04-24T14:17:26;2.67;;;2.47;;
5137;SDS011;53959;53.626;11.410;2023-04-24T14:19:51;1.73;;;1.63;;
5137;SDS011;53959;53.626;11.410;2023-04-24T14:22:20;2.10;;;2.00;;
5137;SDS011;53959;53.626;11.410;2023-04-24T14:24:46;2.80;;;1.57;;
5137;SDS011;53959;53.626;11.410;2023-04-24T14:27:11;3.70;;;2.23;;
5137;SDS011;53959;53.626;11.410;2023-04-24T14:29:36;2.30;;;2.20;;
5137;SDS011;53959;53.626;11.410;2023-04-24T14:32:01;4.90;;;2.30;;
5137;SDS011;53959;53.626;11.410;2023-04-24T14:34:27;6.87;;;2.70;;
5137;SDS011;53959;53.626;11.410;2023-04-24T14:36:52;2.83;;;2.53;;
5137;SDS011;53959;53.626;11.410;2023-04-24T14:39:18;2.00;;;1.90;;
5137;SDS011;53959;53.626;11.410;2023-04-24T14:41:43;2.60;;;2.20;;
5137;SDS011;53959;53.626;11.410;2023-04-24T14:44:09;3.20;;;2.23;;
5137;SDS011;53959;53.626;11.410;2023-04-24T14:46:34;1.60;;;1.60;;
5137;SDS011;53959;53.626;11.410;2023-04-24T14:49:00;2.43;;;2.10;;
5137;SDS011;53959;53.626;11.410;2023-04-24T14:51:25;2.97;;;2.03;;
5137;SDS011;53959;53.626;11.410;2023-04-24T14:53:51;4.80;;;2.40;;
5137;SDS011;53959;53.626;11.410;2023-04-24T14:56:17;3.03;;;2.30;;
5137;SDS011;53959;53.626;11.410;2023-04-24T14:58:42;2.47;;;2.37;;
5137;SDS011;53959;53.626;11.410;2023-04-24T15:01:07;3.03;;;2.10;;
5137;SDS011;53959;53.626;11.410;2023-04-24T15:03:33;2.20;;;2.10;;
5137;SDS011;53959;53.626;11.410;2023-04-24T15:05:58;2.67;;;2.57;;
5137;SDS011;53959;53.626;11.410;2023-04-24T15:08:24;2.73;;;2.53;;